Time;durP1;ratioP1;P1;durP2;ratioP2;P2;SDS_P1;SDS_P2;PMS_P1;PMS_P2;Temp;Humidity;BMP_temperature;BMP_pressure;BME280_temperature;BME280_humidity;BME280_pressure;Samples;Min_cycle;Max_cycle;Signal;HPM_P1;HPM_P2
2021/06/24 00:02:25;;;;;;;8.47;6.13;;;;;;;21.04;100.00;96192.84;5050678;28;20237;-83
2021/06/24 00:04:52;;;;;;;10.77;6.40;;;;;;;20.88;100.00;96194.28;5050877;28;20223;-83
2021/06/24 00:07:19;;;;;;;10.13;6.17;;;;;;;20.80;100.00;96162.53;5050770;28;20292;-84
2021/06/24 00:09:48;;;;;;;11.60;6.37;;;;;;;21.05;100.00;96155.19;5050840;28;20201;-83
2021/06/24 00:12:16;;;;;;;8.00;6.50;;;;;;;20.94;100.00;96125.78;5050699;28;20198;-83
2021/06/24 00:14:43;;;;;;;8.60;6.43;;;;;;;21.16;100.00;96142.09;5050958;28;20284;-84
2021/06/24 00:17:10;;;;;;;7.70;7.00;;;;;;;21.06;100.00;96102.56;5050687;28;20251;-84
2021/06/24 00:19:37;;;;;;;7.83;6.87;;;;;;;21.09;100.00;96105.63;5050730;28;20198;-83
2021/06/24 00:22:05;;;;;;;7.93;6.13;;;;;;;21.13;100.00;96052.53;5050778;28;20630;-84
2021/06/24 00:24:32;;;;;;;9.77;6.30;;;;;;;21.01;100.00;96047.16;5050469;28;20714;-82
2021/06/24 00:27:01;;;;;;;12.23;7.27;;;;;;;20.97;100.00;96010.44;5050168;28;20713;-82
2021/06/24 00:29:28;;;;;;;10.57;7.33;;;;;;;20.71;100.00;96014.31;5050408;28;20198;-82
2021/06/24 00:31:55;;;;;;;6.93;6.13;;;;;;;20.81;100.00;96011.91;5050572;28;20653;-83
2021/06/24 00:34:23;;;;;;;8.90;6.90;;;;;;;20.78;100.00;96007.88;5050758;28;20551;-84
2021/06/24 00:36:50;;;;;;;7.70;6.70;;;;;;;20.98;100.00;95964.78;5049803;28;20222;-82
2021/06/24 00:39:17;;;;;;;10.63;7.00;;;;;;;21.00;100.00;95901.25;5049579;28;20228;-82
2021/06/24 00:41:45;;;;;;;10.70;6.70;;;;;;;21.01;100.00;95859.31;5050129;28;20284;-82
2021/06/24 00:44:14;;;;;;;11.47;6.80;;;;;;;20.99;100.00;95878.25;5050074;28;20244;-82
2021/06/24 00:46:41;;;;;;;12.63;6.90;;;;;;;21.00;100.00;95914.63;5050374;28;20219;-82
2021/06/24 00:49:10;;;;;;;9.37;6.50;;;;;;;20.92;100.00;95853.53;5050092;28;20198;-82
2021/06/24 00:51:37;;;;;;;10.30;6.67;;;;;;;20.88;100.00;95863.84;5049845;28;20233;-83
2021/06/24 00:54:05;;;;;;;10.70;7.03;;;;;;;21.02;100.00;95906.34;5050019;28;20198;-82
2021/06/24 00:56:33;;;;;;;8.80;6.67;;;;;;;21.03;100.00;95906.13;5049917;28;20229;-83
2021/06/24 00:59:02;;;;;;;12.27;7.07;;;;;;;21.03;100.00;95916.00;5049901;28;20684;-83
2021/06/24 01:01:32;;;;;;;13.67;6.70;;;;;;;21.18;100.00;95873.59;5049881;28;20249;-82
2021/06/24 01:04:00;;;;;;;9.87;6.47;;;;;;;21.00;100.00;95871.88;5049858;28;20263;-82
2021/06/24 01:06:27;;;;;;;11.40;8.40;;;;;;;21.17;100.00;95858.59;5049907;28;20232;-82
2021/06/24 01:08:54;;;;;;;11.10;7.10;;;;;;;21.04;100.00;95846.31;5049864;28;20202;-83
2021/06/24 01:11:22;;;;;;;10.43;7.13;;;;;;;21.16;100.00;95856.16;5049487;28;20581;-82
2021/06/24 01:13:50;;;;;;;15.30;8.47;;;;;;;20.86;100.00;95886.50;5049827;28;20554;-83
2021/06/24 01:16:18;;;;;;;12.23;8.30;;;;;;;20.86;100.00;95939.94;5049504;28;20235;-82
2021/06/24 01:18:48;;;;;;;9.73;6.90;;;;;;;20.56;100.00;95953.34;5049647;28;20200;-83
2021/06/24 01:21:15;;;;;;;8.57;7.17;;;;;;;20.45;100.00;95981.59;5049346;28;20182;-82
2021/06/24 01:23:45;;;;;;;14.80;8.23;;;;;;;20.48;100.00;95969.66;5049458;28;20198;-83
2021/06/24 01:26:13;;;;;;;13.93;8.30;;;;;;;20.65;100.00;95955.47;5049621;28;20661;-83
2021/06/24 01:28:41;;;;;;;10.93;6.93;;;;;;;20.41;100.00;95914.53;5049654;27;20201;-82
2021/06/24 01:31:08;;;;;;;8.00;7.10;;;;;;;20.34;100.00;95863.09;5049213;28;20209;-81
2021/06/24 01:33:36;;;;;;;11.30;6.90;;;;;;;20.41;100.00;95842.44;5049203;28;20197;-82
2021/06/24 01:36:07;;;;;;;8.57;7.10;;;;;;;20.41;100.00;95865.66;5049358;28;20285;-81
2021/06/24 01:38:34;;;;;;;7.77;6.13;;;;;;;20.58;100.00;95861.31;5048861;28;20258;-82
2021/06/24 01:41:04;;;;;;;10.93;7.67;;;;;;;20.41;100.00;95821.09;5049205;28;20202;-81
2021/06/24 01:43:31;;;;;;;9.30;7.03;;;;;;;20.08;100.00;95861.63;5049165;28;20646;-81
2021/06/24 01:46:00;;;;;;;7.43;6.20;;;;;;;20.33;100.00;95872.16;5049540;28;20212;-81
2021/06/24 01:48:28;;;;;;;10.37;7.00;;;;;;;20.42;100.00;95845.94;5049015;28;20204;-81
2021/06/24 01:50:57;;;;;;;9.57;6.47;;;;;;;20.52;100.00;95805.34;5048992;28;20229;-82
2021/06/24 01:53:24;;;;;;;10.73;7.13;;;;;;;20.53;100.00;95807.78;5048942;28;20198;-81
2021/06/24 01:55:52;;;;;;;10.87;6.87;;;;;;;20.45;100.00;95807.28;5049465;28;20600;-83
2021/06/24 01:58:23;;;;;;;6.93;6.23;;;;;;;20.52;100.00;95808.03;5049107;28;20236;-81
2021/06/24 02:00:52;;;;;;;11.40;7.10;;;;;;;20.46;100.00;95825.75;5049143;28;20194;-81
2021/06/24 02:03:20;;;;;;;7.67;6.80;;;;;;;20.60;100.00;95810.34;5048929;28;20201;-83
2021/06/24 02:05:50;;;;;;;8.90;7.33;;;;;;;20.62;100.00;95792.22;5049288;28;20630;-81
2021/06/24 02:08:19;;;;;;;9.93;7.67;;;;;;;20.62;100.00;95782.38;5048912;28;20273;-81
2021/06/24 02:10:47;;;;;;;10.90;7.57;;;;;;;20.61;100.00;95811.97;5048616;28;20289;-81
2021/06/24 02:13:14;;;;;;;10.17;6.77;;;;;;;20.56;100.00;95828.69;5048790;28;20293;-81
2021/06/24 02:15:43;;;;;;;15.03;7.20;;;;;;;20.55;100.00;95851.09;5048719;28;20286;-81
2021/06/24 02:18:12;;;;;;;15.47;7.07;;;;;;;20.59;100.00;95868.25;5048675;28;20229;-81
2021/06/24 02:20:41;;;;;;;11.30;6.30;;;;;;;20.66;100.00;95882.31;5048671;28;20198;-83
2021/06/24 02:23:09;;;;;;;14.23;7.17;;;;;;;20.74;100.00;95889.16;5048761;28;20198;-81
2021/06/24 02:25:37;;;;;;;8.73;6.60;;;;;;;20.76;100.00;95875.59;5048669;28;20245;-81
2021/06/24 02:28:05;;;;;;;12.80;7.30;;;;;;;20.86;100.00;95870.47;5048500;28;20688;-81
2021/06/24 02:30:33;;;;;;;12.80;7.93;;;;;;;20.83;100.00;95878.97;5048545;28;20235;-83
2021/06/24 02:33:02;;;;;;;9.87;7.07;;;;;;;20.83;100.00;95877.09;5048755;28;20202;-82
2021/06/24 02:35:34;;;;;;;11.27;6.53;;;;;;;20.70;100.00;95871.97;5048802;28;20209;-81
2021/06/24 02:38:02;;;;;;;9.53;6.90;;;;;;;20.64;100.00;95889.75;5048128;28;20246;-82
2021/06/24 02:40:29;;;;;;;9.93;6.30;;;;;;;20.54;100.00;95937.56;5048478;28;20753;-81
2021/06/24 02:42:56;;;;;;;9.83;7.13;;;;;;;20.63;100.00;95930.84;5048347;28;20285;-81
2021/06/24 02:45:24;;;;;;;8.57;7.17;;;;;;;20.65;100.00;95912.75;5048313;28;20202;-81
2021/06/24 02:47:52;;;;;;;13.73;7.03;;;;;;;20.74;100.00;95901.72;5048277;28;20258;-81
2021/06/24 02:50:21;;;;;;;13.80;6.60;;;;;;;20.73;100.00;95903.56;5048775;28;20210;-82
2021/06/24 02:52:49;;;;;;;14.13;7.50;;;;;;;20.69;100.00;95913.09;5048183;28;20202;-81
2021/06/24 02:55:16;;;;;;;8.73;7.03;;;;;;;20.82;100.00;95909.41;5048136;28;20190;-82
2021/06/24 02:57:45;;;;;;;8.47;7.57;;;;;;;20.71;100.00;95913.66;5047996;28;20221;-81
2021/06/24 03:00:14;;;;;;;12.80;7.27;;;;;;;20.71;100.00;95943.03;5048354;28;20254;-82
2021/06/24 03:02:42;;;;;;;9.87;6.73;;;;;;;20.52;100.00;95941.50;5048897;28;20190;-82
2021/06/24 03:05:11;;;;;;;11.20;7.03;;;;;;;20.57;100.00;95922.94;5051595;28;20666;-82
2021/06/24 03:07:40;;;;;;;13.07;7.40;;;;;;;20.50;100.00;95925.69;5044734;28;20194;-81
2021/06/24 03:10:09;;;;;;;10.70;7.73;;;;;;;20.42;100.00;95929.50;5031781;28;20199;-82
2021/06/24 03:12:37;;;;;;;9.17;6.50;;;;;;;20.40;100.00;95958.28;5031061;28;20194;-81
2021/06/24 03:15:06;;;;;;;10.70;6.60;;;;;;;20.44;100.00;95966.66;5031991;28;20639;-82
2021/06/24 03:17:35;;;;;;;11.20;6.73;;;;;;;20.48;100.00;95975.81;5031384;28;20283;-83
2021/06/24 03:20:02;;;;;;;9.10;7.07;;;;;;;20.59;100.00;95968.91;5031541;28;20191;-83
2021/06/24 03:22:29;;;;;;;8.50;6.93;;;;;;;20.65;100.00;95950.13;5031206;28;20206;-81
2021/06/24 03:24:59;;;;;;;10.27;7.23;;;;;;;20.69;100.00;95925.63;5031383;28;20195;-81
2021/06/24 03:27:26;;;;;;;15.30;7.83;;;;;;;20.75;100.00;95951.41;5031204;28;20269;-81
2021/06/24 03:29:53;;;;;;;11.27;7.10;;;;;;;20.76;100.00;95974.41;5030313;28;20203;-81
2021/06/24 03:32:21;;;;;;;12.57;7.60;;;;;;;20.60;100.00;95958.00;5030360;28;20228;-81
2021/06/24 03:34:48;;;;;;;11.83;7.33;;;;;;;20.38;100.00;95984.38;5030587;28;20210;-81
2021/06/24 03:37:15;;;;;;;10.20;7.73;;;;;;;20.32;100.00;96013.81;5029951;28;20223;-81
2021/06/24 03:39:45;;;;;;;12.80;7.77;;;;;;;20.49;100.00;96006.81;5030595;28;20253;-81
2021/06/24 03:42:14;;;;;;;11.60;7.07;;;;;;;20.55;100.00;95986.44;5029971;28;20206;-81
2021/06/24 03:44:41;;;;;;;15.40;9.30;;;;;;;20.63;100.00;95970.88;5038364;28;20278;-80
2021/06/24 03:47:09;;;;;;;14.07;7.97;;;;;;;20.63;100.00;95968.22;5034653;28;20203;-84
2021/06/24 03:49:36;;;;;;;8.77;7.77;;;;;;;20.81;100.00;95966.50;5030718;28;20203;-83
2021/06/24 03:52:04;;;;;;;13.87;8.80;;;;;;;20.82;100.00;95954.81;5030632;28;20252;-85
2021/06/24 03:54:31;;;;;;;15.10;9.23;;;;;;;20.96;100.00;95961.53;5030831;28;20199;-83
2021/06/24 03:56:59;;;;;;;14.53;8.73;;;;;;;21.03;100.00;95958.75;5031437;28;20285;-87
2021/06/24 03:59:27;;;;;;;14.40;8.83;;;;;;;21.01;100.00;95961.66;5031717;28;20210;-86
2021/06/24 04:01:55;;;;;;;10.50;8.23;;;;;;;21.07;100.00;95955.38;5031651;28;20206;-87
2021/06/24 04:04:23;;;;;;;12.07;10.03;;;;;;;21.13;100.00;95957.13;5034405;28;20198;-89
2021/06/24 04:06:50;;;;;;;11.27;9.17;;;;;;;21.16;100.00;95960.38;5051580;28;20198;-87
2021/06/24 04:09:17;;;;;;;13.07;8.77;;;;;;;21.17;100.00;95949.47;5051216;28;20233;-90
2021/06/24 04:11:45;;;;;;;9.83;8.10;;;;;;;21.20;100.00;95942.81;5050890;28;20190;-84
2021/06/24 04:14:12;;;;;;;16.50;9.83;;;;;;;21.12;100.00;95968.84;5051331;28;20205;-87
2021/06/24 04:16:41;;;;;;;12.40;8.40;;;;;;;21.18;100.00;95985.00;5051550;28;20238;-86
2021/06/24 04:19:10;;;;;;;13.43;9.30;;;;;;;21.09;100.00;95998.72;5051319;28;20228;-87
2021/06/24 04:21:37;;;;;;;11.30;8.17;;;;;;;21.11;100.00;96015.34;5051741;28;20566;-87
2021/06/24 04:24:05;;;;;;;14.10;8.43;;;;;;;21.18;100.00;96022.44;5051368;28;20763;-86
2021/06/24 04:26:33;;;;;;;15.77;8.90;;;;;;;21.14;100.00;96019.41;5051240;28;20238;-88
2021/06/24 04:29:00;;;;;;;13.57;8.43;;;;;;;21.24;100.00;96016.16;5051419;28;20518;-86
2021/06/24 04:31:27;;;;;;;12.00;8.53;;;;;;;21.27;100.00;96018.38;5051120;28;20223;-86
2021/06/24 04:33:57;;;;;;;16.40;9.10;;;;;;;21.30;100.00;96023.25;5050883;28;20686;-86
2021/06/24 04:36:24;;;;;;;12.90;9.23;;;;;;;21.38;100.00;96044.31;5050791;28;20226;-87
2021/06/24 04:38:52;;;;;;;21.70;10.53;;;;;;;21.39;100.00;96061.97;5050950;28;20257;-87
2021/06/24 04:41:19;;;;;;;11.20;9.87;;;;;;;21.38;100.00;96089.78;5051122;28;20197;-87
2021/06/24 04:43:46;;;;;;;12.40;10.30;;;;;;;21.41;100.00;96091.19;5050912;28;20684;-87
2021/06/24 04:46:14;;;;;;;13.07;11.17;;;;;;;21.47;100.00;96080.34;5051190;27;20278;-88
2021/06/24 04:48:41;;;;;;;11.63;9.63;;;;;;;21.51;100.00;96076.19;5051270;28;20238;-88
2021/06/24 04:51:10;;;;;;;17.30;11.43;;;;;;;21.64;100.00;96052.91;5051161;28;20194;-87
2021/06/24 04:53:38;;;;;;;15.80;9.43;;;;;;;21.70;100.00;96054.66;5050844;28;20237;-87
2021/06/24 04:56:05;;;;;;;15.97;10.87;;;;;;;21.74;100.00;96050.47;5050849;28;20701;-88
2021/06/24 04:58:34;;;;;;;12.87;9.47;;;;;;;21.78;100.00;96059.66;5050798;28;20232;-87
2021/06/24 05:01:01;;;;;;;17.20;9.70;;;;;;;21.81;100.00;96081.41;5050640;28;20194;-88
2021/06/24 05:03:29;;;;;;;14.30;10.00;;;;;;;21.99;100.00;96083.13;5050711;28;20212;-87
2021/06/24 05:05:56;;;;;;;13.93;9.87;;;;;;;21.98;100.00;96100.22;5050942;28;20258;-87
2021/06/24 05:08:28;;;;;;;11.53;9.03;;;;;;;22.05;100.00;96076.84;5050671;28;20688;-88
2021/06/24 05:10:55;;;;;;;10.67;8.60;;;;;;;22.14;100.00;96073.81;5051452;27;20196;-88
2021/06/24 05:13:23;;;;;;;10.63;9.07;;;;;;;22.21;100.00;96090.59;5050708;27;20734;-87
2021/06/24 05:15:50;;;;;;;16.87;9.77;;;;;;;22.26;100.00;96144.22;5050818;27;20669;-87
2021/06/24 05:18:18;;;;;;;20.90;9.40;;;;;;;22.30;100.00;96169.47;5050760;27;20233;-87
2021/06/24 05:20:46;;;;;;;13.57;8.37;;;;;;;22.48;100.00;96161.31;5050604;27;20201;-87
2021/06/24 05:23:15;;;;;;;9.10;8.13;;;;;;;22.57;100.00;96153.69;5050708;27;20221;-89
2021/06/24 05:25:45;;;;;;;14.63;8.93;;;;;;;22.78;100.00;96136.97;5050075;27;20614;-88
2021/06/24 05:28:13;;;;;;;14.47;8.80;;;;;;;22.95;100.00;96120.97;5050729;27;20198;-88
2021/06/24 05:30:40;;;;;;;16.93;9.23;;;;;;;23.05;100.00;96127.59;5050594;27;20730;-89
2021/06/24 05:33:07;;;;;;;10.60;9.50;;;;;;;23.23;100.00;96130.84;5050343;28;20281;-87
2021/06/24 05:35:35;;;;;;;11.40;8.83;;;;;;;23.32;100.00;96101.78;5050521;27;20246;-87
2021/06/24 05:38:03;;;;;;;14.30;9.60;;;;;;;23.53;100.00;96076.09;5050215;27;20274;-87
2021/06/24 05:40:30;;;;;;;13.00;9.60;;;;;;;23.66;100.00;96059.66;5050169;28;20201;-87
2021/06/24 05:42:59;;;;;;;14.03;11.10;;;;;;;23.71;100.00;96062.44;5050850;27;20282;-87
2021/06/24 05:45:29;;;;;;;20.07;11.60;;;;;;;23.69;100.00;96118.25;5050624;28;20630;-87
2021/06/24 05:47:57;;;;;;;15.57;9.23;;;;;;;23.93;100.00;96159.13;5050531;28;20259;-88
2021/06/24 05:50:26;;;;;;;17.80;10.13;;;;;;;24.11;100.00;96197.50;5050158;28;20193;-89
2021/06/24 05:52:54;;;;;;;14.53;10.33;;;;;;;24.29;100.00;96216.03;5050015;28;20233;-87
2021/06/24 05:55:47;;;;;;;13.27;9.87;;;;;;;24.42;100.00;96239.88;5049281;28;20281;-88
2021/06/24 05:58:11;;;;;;;14.33;9.67;;;;;;;24.66;100.00;96253.09;5049678;28;20306;-87
2021/06/24 06:00:39;;;;;;;14.37;10.33;;;;;;;24.75;100.00;96280.38;5050226;28;20217;-88
2021/06/24 06:03:07;;;;;;;17.33;10.43;;;;;;;24.96;100.00;96295.69;5050353;28;20734;-87
2021/06/24 06:05:34;;;;;;;15.60;9.40;;;;;;;25.08;100.00;96303.66;5049928;28;20194;-87
2021/06/24 06:08:03;;;;;;;16.73;10.10;;;;;;;25.09;100.00;96257.69;5050183;28;20190;-87
2021/06/24 06:10:31;;;;;;;17.90;9.27;;;;;;;25.23;100.00;96276.97;5049982;28;20665;-87
2021/06/24 06:12:58;;;;;;;20.13;10.40;;;;;;;25.41;100.00;96256.19;5050013;27;20202;-88
2021/06/24 06:15:27;;;;;;;11.97;8.63;;;;;;;25.64;100.00;96331.25;5049724;28;20220;-89
2021/06/24 06:17:54;;;;;;;31.97;22.07;;;;;;;25.82;100.00;96373.22;5049647;28;20198;-88
2021/06/24 06:20:22;;;;;;;18.27;10.53;;;;;;;25.79;100.00;96307.22;5049734;28;20197;-87
2021/06/24 06:22:49;;;;;;;15.63;10.17;;;;;;;26.03;100.00;96296.13;5049561;28;20732;-88
2021/06/24 06:25:16;;;;;;;17.40;10.83;;;;;;;26.11;100.00;96270.59;5049658;28;20202;-89
2021/06/24 06:27:44;;;;;;;16.63;9.35;;;;;;;26.60;100.00;96259.66;5049588;28;20247;-90
2021/06/24 06:30:12;;;;;;;15.97;10.33;;;;;;;26.74;100.00;96280.53;5049612;28;20725;-88
2021/06/24 06:32:41;;;;;;;12.07;9.98;;;;;;;26.94;100.00;96306.78;5049887;27;20662;-88
2021/06/24 06:35:09;;;;;;;21.23;10.77;;;;;;;26.96;100.00;96287.66;5049988;28;20662;-88
2021/06/24 06:37:36;;;;;;;21.17;9.35;;;;;;;27.00;100.00;96315.72;5050486;28;20190;-88
2021/06/24 06:40:04;;;;;;;16.15;10.02;;;;;;;27.01;100.00;96312.75;5053086;28;20261;-89
2021/06/24 06:42:32;;;;;;;17.25;9.48;;;;;;;26.98;100.00;96305.19;5052976;28;20205;-87
2021/06/24 06:44:59;;;;;;;19.88;10.57;;;;;;;27.22;100.00;96327.16;5052963;28;20201;-89
2021/06/24 06:47:26;;;;;;;17.48;9.43;;;;;;;27.47;100.00;96315.69;5053278;27;20225;-88
2021/06/24 06:49:55;;;;;;;14.60;8.75;;;;;;;27.64;100.00;96337.06;5052968;28;20196;-88
2021/06/24 06:52:22;;;;;;;17.20;9.65;;;;;;;27.67;100.00;96379.72;5053040;28;20258;-89
2021/06/24 06:54:50;;;;;;;19.08;9.48;;;;;;;27.81;100.00;96387.34;5053095;28;20248;-88
2021/06/24 06:57:17;;;;;;;14.32;8.07;;;;;;;27.78;100.00;96390.59;5052730;28;20254;-88
2021/06/24 06:59:45;;;;;;;16.30;8.98;;;;;;;28.01;100.00;96370.41;5052713;28;20261;-87
2021/06/24 07:02:12;;;;;;;15.93;9.20;;;;;;;28.13;100.00;96368.28;5052939;28;20194;-90
2021/06/24 07:04:39;;;;;;;19.10;11.00;;;;;;;28.04;100.00;96467.94;5052892;28;20198;-88
2021/06/24 07:07:08;;;;;;;15.77;9.25;;;;;;;27.98;100.00;96521.13;5052639;28;20224;-88
2021/06/24 07:09:35;;;;;;;17.65;9.73;;;;;;;27.88;100.00;96509.47;5052561;28;20234;-88
2021/06/24 07:12:03;;;;;;;18.35;10.65;;;;;;;27.87;100.00;96515.94;5052550;28;20237;-88
2021/06/24 07:14:30;;;;;;;15.32;10.65;;;;;;;27.92;100.00;96486.28;5052567;28;20198;-89
2021/06/24 07:16:58;;;;;;;19.35;10.38;;;;;;;27.82;100.00;96483.53;5052532;28;20237;-88
2021/06/24 07:19:25;;;;;;;20.35;10.07;;;;;;;27.76;100.00;96498.06;5052407;28;20262;-90
2021/06/24 07:21:52;;;;;;;14.05;9.43;;;;;;;28.05;100.00;96501.97;5052380;28;20241;-88
2021/06/24 07:24:21;;;;;;;19.17;10.93;;;;;;;28.05;100.00;96450.66;5052364;28;20194;-90
2021/06/24 07:26:49;;;;;;;17.25;10.95;;;;;;;28.05;100.00;96574.13;5052385;28;20288;-89
2021/06/24 07:29:16;;;;;;;13.82;10.85;;;;;;;28.05;100.00;96630.84;5052740;28;20629;-89
2021/06/24 07:31:43;;;;;;;14.95;10.63;;;;;;;28.19;100.00;96597.69;5052274;28;20251;-89
2021/06/24 07:34:11;;;;;;;16.02;11.80;;;;;;;28.25;100.00;96539.09;5052541;28;20647;-89
2021/06/24 07:36:39;;;;;;;21.60;11.52;;;;;;;28.34;100.00;96496.16;5052540;28;20204;-89
2021/06/24 07:39:07;;;;;;;18.77;10.15;;;;;;;28.46;100.00;96534.59;5052384;28;20235;-89
2021/06/24 07:41:35;;;;;;;15.18;10.77;;;;;;;28.31;100.00;96529.13;5052339;28;20230;-89
2021/06/24 07:44:03;;;;;;;14.77;10.85;;;;;;;28.32;100.00;96555.06;5052153;28;20201;-88
2021/06/24 07:46:31;;;;;;;17.42;11.85;;;;;;;28.28;100.00;96556.66;5052095;28;20222;-88
2021/06/24 07:48:59;;;;;;;17.85;11.98;;;;;;;28.34;100.00;96534.00;5051613;28;20201;-91
2021/06/24 07:51:26;;;;;;;14.82;11.32;;;;;;;28.42;100.00;96507.28;5051972;28;20716;-92
2021/06/24 07:53:53;;;;;;;17.85;11.38;;;;;;;28.77;100.00;96523.84;5052485;28;20548;-89
2021/06/24 07:56:21;;;;;;;17.60;12.15;;;;;;;28.98;100.00;96498.44;5052074;28;20198;-90
2021/06/24 07:58:52;;;;;;;17.85;11.05;;;;;;;28.85;100.00;96388.88;5051780;28;20265;-89
2021/06/24 08:01:20;;;;;;;15.10;9.68;;;;;;;28.89;100.00;96471.13;5051926;27;20197;-89
2021/06/24 08:03:47;;;;;;;17.40;9.68;;;;;;;28.96;100.00;96449.19;5051822;27;20209;-89
2021/06/24 08:06:14;;;;;;;23.60;10.25;;;;;;;29.21;100.00;96464.63;5052359;28;20189;-89
2021/06/24 08:08:42;;;;;;;22.83;10.60;;;;;;;29.10;100.00;96411.59;5051664;28;20241;-89
2021/06/24 08:11:09;;;;;;;17.60;9.40;;;;;;;29.31;100.00;96450.28;5051552;28;20197;-89
2021/06/24 08:13:36;;;;;;;18.77;10.45;;;;;;;29.07;100.00;96475.19;5051670;28;20233;-91
2021/06/24 08:16:06;;;;;;;17.52;10.90;;;;;;;29.14;100.00;96502.78;5052027;27;20643;-89
2021/06/24 08:18:33;;;;;;;18.40;10.40;;;;;;;29.26;100.00;96551.22;5052123;28;20591;-89
2021/06/24 08:21:04;;;;;;;23.90;11.45;;;;;;;29.42;100.00;96535.00;5051834;28;20224;-90
2021/06/24 08:23:31;;;;;;;11.95;9.70;;;;;;;29.59;100.00;96539.06;5051893;28;20277;-90
2021/06/24 08:25:59;;;;;;;16.33;8.80;;;;;;;29.64;100.00;96458.88;5051521;28;20616;-90
2021/06/24 08:28:26;;;;;;;17.35;10.27;;;;;;;29.59;100.00;96476.78;5051797;28;20241;-90
2021/06/24 08:30:55;;;;;;;18.05;9.23;;;;;;;29.55;100.00;96496.53;5051405;28;20194;-91
2021/06/24 08:33:24;;;;;;;17.45;10.38;;;;;;;29.71;100.00;96456.69;5051382;28;20202;-92
2021/06/24 08:35:51;;;;;;;18.80;10.15;;;;;;;29.52;100.00;96470.78;5051285;28;20201;-89
2021/06/24 08:38:19;;;;;;;13.65;9.38;;;;;;;29.66;100.00;96500.84;5051340;28;20237;-90
2021/06/24 08:40:46;;;;;;;16.90;10.52;;;;;;;29.47;100.00;96430.19;5051469;28;20610;-90
2021/06/24 08:43:14;;;;;;;21.38;10.38;;;;;;;29.47;100.00;96422.06;5051242;28;20194;-89
2021/06/24 08:45:41;;;;;;;17.13;9.55;;;;;;;29.44;100.00;96429.91;5051325;28;20666;-90
2021/06/24 08:48:13;;;;;;;19.70;10.80;;;;;;;29.58;100.00;96449.91;5051201;28;20678;-90
2021/06/24 08:50:45;;;;;;;19.33;9.30;;;;;;;29.64;100.00;96397.38;5051414;28;20190;-89
2021/06/24 08:53:12;;;;;;;21.85;9.90;;;;;;;29.22;100.00;96449.19;5050990;28;20194;-89
2021/06/24 08:55:43;;;;;;;19.05;10.25;;;;;;;28.90;100.00;96562.00;5050931;28;20208;-90
2021/06/24 08:58:11;;;;;;;14.60;8.68;;;;;;;29.02;100.00;96601.56;5051035;28;20221;-89
2021/06/24 09:00:38;;;;;;;16.70;10.02;;;;;;;29.28;100.00;96477.88;5049795;28;20222;-89
2021/06/24 09:03:16;;;;;;;15.50;9.82;;;;;;;29.20;100.00;96509.03;5050923;28;20205;-90
2021/06/24 09:05:53;;;;;;;12.57;9.63;;;;;;;29.30;100.00;96498.16;5050820;28;20208;-91
2021/06/24 09:08:25;;;;;;;18.50;9.23;;;;;;;29.49;100.00;96473.25;5051168;28;20242;-91
2021/06/24 09:11:08;;;;;;;16.58;9.50;;;;;;;29.95;100.00;96473.94;5051294;27;20266;-90
2021/06/24 09:13:35;;;;;;;20.02;9.82;;;;;;;29.88;100.00;96467.19;5048853;28;20288;-90
2021/06/24 09:16:06;;;;;;;17.15;10.60;;;;;;;29.60;100.00;96512.78;5050633;28;20197;-92
2021/06/24 09:18:33;;;;;;;16.10;8.65;;;;;;;29.42;100.00;96522.25;5050702;28;20182;-89
2021/06/24 09:21:05;;;;;;;19.85;10.68;;;;;;;29.84;100.00;96600.50;5050857;28;20244;-91
2021/06/24 09:23:35;;;;;;;16.63;10.68;;;;;;;30.13;100.00;96580.09;5050677;27;20280;-91
2021/06/24 09:26:11;;;;;;;16.08;11.05;;;;;;;30.52;100.00;96480.72;5050618;28;20648;-89
2021/06/24 09:28:40;;;;;;;19.27;9.52;;;;;;;30.43;100.00;96356.84;5050859;28;20182;-90
2021/06/24 09:31:26;;;;;;;17.23;10.07;;;;;;;29.98;100.00;96461.72;5050794;28;20289;-90
2021/06/24 09:33:54;;;;;;;17.05;11.05;;;;;;;29.90;100.00;96598.59;5050662;28;20190;-90
2021/06/24 09:36:38;;;;;;;14.82;10.07;;;;;;;30.07;100.00;96555.75;5050606;28;20201;-90
2021/06/24 09:39:08;;;;;;;23.15;10.30;;;;;;;30.20;100.00;96399.03;5050486;27;20225;-90
2021/06/24 09:41:36;;;;;;;22.02;10.20;;;;;;;30.18;100.00;96374.13;5050313;28;20225;-91
2021/06/24 09:44:23;;;;;;;21.42;9.93;;;;;;;30.32;100.00;96361.53;5050316;28;20225;-90
2021/06/24 09:46:51;;;;;;;16.45;9.27;;;;;;;30.62;100.00;96405.78;5050545;28;20192;-90
2021/06/24 09:49:27;;;;;;;17.98;10.90;;;;;;;30.68;100.00;96269.00;5050501;28;20317;-90
2021/06/24 09:51:58;;;;;;;18.58;10.02;;;;;;;30.74;100.00;96246.97;5050160;28;20190;-91
2021/06/24 09:54:43;;;;;;;15.25;9.20;;;;;;;30.77;100.00;96259.19;5050131;28;20255;-91
2021/06/24 09:57:24;;;;;;;13.10;9.07;;;;;;;30.64;100.00;96240.84;5049320;27;20202;-90
2021/06/24 09:59:54;;;;;;;14.27;9.75;;;;;;;31.09;100.00;96234.13;5050590;28;20241;-90
2021/06/24 10:02:22;;;;;;;11.75;8.60;;;;;;;31.28;100.00;96236.88;5050534;28;20198;-90
2021/06/24 10:04:50;;;;;;;14.60;9.38;;;;;;;30.94;100.00;96221.56;5049963;28;20309;-91
2021/06/24 10:07:21;;;;;;;19.05;10.38;;;;;;;30.62;100.00;96229.47;5050031;27;20198;-90
2021/06/24 10:09:48;;;;;;;14.93;9.90;;;;;;;30.63;100.00;96247.38;5049848;28;20189;-89
2021/06/24 10:12:17;;;;;;;13.75;10.13;;;;;;;30.78;100.00;96220.09;5049630;28;20202;-92
2021/06/24 10:14:46;;;;;;;21.88;10.82;;;;;;;30.88;100.00;96290.53;5049799;28;20666;-92
2021/06/24 10:17:13;;;;;;;19.88;11.38;;;;;;;30.61;100.00;96255.78;5049981;28;20270;-91
2021/06/24 10:19:42;;;;;;;20.35;10.93;;;;;;;30.68;100.00;96296.94;5049748;28;20764;-92
2021/06/24 10:22:14;;;;;;;21.52;10.55;;;;;;;30.87;100.00;96176.88;5049799;28;20267;-91
2021/06/24 10:24:49;;;;;;;20.35;10.05;;;;;;;31.37;100.00;96256.88;5050162;27;20675;-91
2021/06/24 10:27:17;;;;;;;19.42;10.93;;;;;;;30.78;100.00;96158.50;5049806;28;20226;-93
2021/06/24 10:29:47;;;;;;;21.85;11.07;;;;;;;30.34;100.00;96286.13;5049809;28;20676;-92
2021/06/24 10:32:30;;;;;;;11.40;10.20;;;;;;;30.30;100.00;96247.13;5049562;28;20194;-92
2021/06/24 10:34:59;;;;;;;19.48;10.65;;;;;;;30.24;100.00;96250.97;5048084;27;20207;-91
2021/06/24 10:37:28;;;;;;;11.52;10.20;;;;;;;29.99;100.00;96339.50;5049693;27;20202;-91
2021/06/24 10:39:59;;;;;;;20.02;10.52;;;;;;;30.31;100.00;96362.66;5049501;27;20225;-93
2021/06/24 10:42:31;;;;;;;18.80;9.73;;;;;;;31.00;100.00;96192.44;5049502;28;20190;-91
2021/06/24 10:45:01;;;;;;;20.90;10.15;;;;;;;31.07;100.00;96148.63;5049752;28;20187;-91
2021/06/24 10:47:36;;;;;;;16.30;11.50;;;;;;;31.21;100.00;96177.50;5049688;28;20251;-93
2021/06/24 10:50:37;;;;;;;18.48;10.85;;;;;;;31.44;100.00;96145.16;5049773;28;20613;-93
2021/06/24 10:53:39;;;;;;;18.52;10.82;;;;;;;31.36;100.00;96130.34;5049509;28;20229;-92
2021/06/24 10:56:47;;;;;;;22.13;10.60;;;;;;;31.25;100.00;96150.56;5049610;27;20202;-92
2021/06/24 10:59:33;;;;;;;12.70;9.07;;;;;;;31.30;100.00;96108.97;5049554;28;20273;-91
2021/06/24 11:02:14;;;;;;;20.10;10.93;;;;;;;31.53;100.00;96080.13;5049465;27;20224;-91
2021/06/24 11:04:46;;;;;;;12.35;8.75;;;;;;;31.49;100.00;96015.53;5049440;27;20277;-91
2021/06/24 11:07:37;;;;;;;20.20;10.27;;;;;;;31.68;100.00;96066.25;5049376;27;20235;-92
2021/06/24 11:10:21;;;;;;;11.32;9.23;;;;;;;31.84;100.00;96105.66;5049694;27;20589;-92
2021/06/24 11:12:56;;;;;;;19.23;8.52;;;;;;;31.59;100.00;95989.28;5049557;27;20194;-91
2021/06/24 11:15:46;;;;;;;11.52;6.72;;;;;;;31.69;100.00;95907.56;5049515;27;20712;-92
2021/06/24 11:18:46;;;;;;;13.73;6.43;;;;;;;32.06;100.00;95916.66;5049367;27;20212;-91
2021/06/24 11:21:15;;;;;;;14.45;9.05;;;;;;;31.95;100.00;96027.50;5037674;27;20229;-91
2021/06/24 11:23:49;;;;;;;14.30;9.18;;;;;;;32.26;100.00;96060.31;5049931;27;20262;-92
2021/06/24 11:26:18;;;;;;;13.02;8.38;;;;;;;32.00;100.00;96007.56;5052348;27;20221;-91
2021/06/24 11:28:49;;;;;;;16.08;8.43;;;;;;;32.31;100.00;96098.28;5052554;27;20198;-91